Time;durP1;ratioP1;P1;durP2;ratioP2;P2;SDS_P1;SDS_P2;PMS_P1;PMS_P2;Temp;Humidity;BMP_temperature;BMP_pressure;BME280_temperature;BME280_humidity;BME280_pressure;Samples;Min_cycle;Max_cycle;Signal;HPM_P1;HPM_P2
2023/01/05 00:01:36;;;;;;;54.75;26.75;;;;;;;;;;5097738;28;20054;-75
2023/01/05 00:04:22;;;;;;;49.40;25.58;;;;;;;;;;5082619;28;20031;-75
2023/01/05 00:07:07;;;;;;;53.33;26.67;;;;;;;;;;5100787;28;20124;-75
2023/01/05 00:09:53;;;;;;;54.00;26.63;;;;;;;;;;5091458;28;20023;-75
2023/01/05 00:25:00;;;;;;;58.17;27.15;;;;;;;;;;5094430;28;20012;-73
2023/01/05 00:27:50;;;;;;;58.75;29.83;;;;;;;;;;5094301;28;20020;-73
2023/01/05 00:30:45;;;;;;;62.30;29.10;;;;;;;;;;5095083;28;20024;-74
2023/01/05 00:33:31;;;;;;;64.03;30.00;;;;;;;;;;5086794;28;20024;-74
2023/01/05 00:36:17;;;;;;;68.82;31.77;;;;;;;;;;5094412;28;20020;-75
2023/01/05 00:39:02;;;;;;;75.43;31.75;;;;;;;;;;5079133;28;20045;-74
2023/01/05 00:41:48;;;;;;;67.75;31.02;;;;;;;;;;5094431;28;20080;-74
2023/01/05 00:44:34;;;;;;;63.85;30.63;;;;;;;;;;5094940;28;20019;-76
2023/01/05 00:47:19;;;;;;;68.25;30.30;;;;;;;;;;5093891;28;20020;-75
2023/01/05 00:50:05;;;;;;;65.63;28.55;;;;;;;;;;5094043;28;20024;-74
2023/01/05 00:52:51;;;;;;;74.70;30.88;;;;;;;;;;5093871;28;20110;-74
2023/01/05 00:55:36;;;;;;;72.93;31.08;;;;;;;;;;5095577;28;20016;-75
2023/01/05 00:58:22;;;;;;;74.28;30.55;;;;;;;;;;5079907;28;20023;-75
2023/01/05 01:01:09;;;;;;;76.75;30.50;;;;;;;;;;5094894;28;20499;-73
2023/01/05 01:03:55;;;;;;;76.03;31.10;;;;;;;;;;5094405;28;20050;-73
2023/01/05 01:06:41;;;;;;;73.35;30.02;;;;;;;;;;5094845;28;20016;-73
2023/01/05 01:09:26;;;;;;;73.35;30.23;;;;;;;;;;5094345;28;20016;-73
2023/01/05 01:12:12;;;;;;;76.70;30.63;;;;;;;;;;5095388;28;20034;-74
2023/01/05 01:14:57;;;;;;;71.25;30.20;;;;;;;;;;5094299;28;20101;-73
2023/01/05 01:17:43;;;;;;;66.65;28.15;;;;;;;;;;5079307;28;20035;-74
2023/01/05 01:20:28;;;;;;;73.93;29.30;;;;;;;;;;5094059;28;20055;-73
2023/01/05 01:23:14;;;;;;;70.63;28.77;;;;;;;;;;5095072;28;20042;-73
2023/01/05 01:26:04;;;;;;;71.25;30.42;;;;;;;;;;5094196;28;20028;-73
2023/01/05 01:28:50;;;;;;;73.85;30.10;;;;;;;;;;5093408;28;20037;-73
2023/01/05 01:31:36;;;;;;;65.07;28.38;;;;;;;;;;5092969;28;20028;-74
2023/01/05 01:34:22;;;;;;;77.05;30.90;;;;;;;;;;5092353;28;20103;-74
2023/01/05 01:37:07;;;;;;;70.38;29.48;;;;;;;;;;5092736;28;20409;-73
2023/01/05 01:39:53;;;;;;;75.80;29.85;;;;;;;;;;5078645;28;20024;-74
2023/01/05 01:42:38;;;;;;;71.72;28.95;;;;;;;;;;5071746;28;20107;-73
2023/01/05 01:45:24;;;;;;;76.03;29.88;;;;;;;;;;5094223;28;20056;-74
2023/01/05 01:48:16;;;;;;;67.00;26.80;;;;;;;;;;5093539;28;20042;-74
2023/01/05 01:51:03;;;;;;;70.43;28.58;;;;;;;;;;5093072;28;20026;-75
2023/01/05 01:53:51;;;;;;;69.32;27.42;;;;;;;;;;5080955;28;20017;-74
2023/01/05 01:56:51;;;;;;;69.07;28.48;;;;;;;;;;5093935;28;20024;-74
2023/01/05 01:59:37;;;;;;;69.78;28.85;;;;;;;;;;5093468;28;20112;-74
2023/01/05 02:02:23;;;;;;;70.93;29.30;;;;;;;;;;5093562;28;20059;-73
2023/01/05 02:05:10;;;;;;;81.05;30.35;;;;;;;;;;5092628;28;20020;-74
2023/01/05 02:07:55;;;;;;;82.15;30.45;;;;;;;;;;5093162;28;20036;-74
2023/01/05 02:11:00;;;;;;;75.28;28.60;;;;;;;;;;5093393;28;20035;-75
2023/01/05 02:14:04;;;;;;;66.78;28.00;;;;;;;;;;5093444;28;20107;-75
2023/01/05 02:17:11;;;;;;;68.85;28.90;;;;;;;;;;5093046;28;20043;-74
2023/01/05 02:20:14;;;;;;;67.70;28.95;;;;;;;;;;5093531;28;20024;-74
2023/01/05 02:23:29;;;;;;;76.32;29.92;;;;;;;;;;5092859;28;20012;-74
2023/01/05 02:26:24;;;;;;;78.07;30.23;;;;;;;;;;5085939;28;20051;-73
2023/01/05 02:29:30;;;;;;;82.85;32.35;;;;;;;;;;5093268;28;20024;-73
2023/01/05 02:32:19;;;;;;;69.13;29.88;;;;;;;;;;5093093;28;20020;-74
2023/01/05 02:35:05;;;;;;;75.05;30.13;;;;;;;;;;5093553;28;20107;-73
2023/01/05 02:37:59;;;;;;;69.43;28.67;;;;;;;;;;5077465;28;20465;-75
2023/01/05 02:40:47;;;;;;;70.60;29.92;;;;;;;;;;5092888;28;20028;-74
2023/01/05 02:43:33;;;;;;;77.93;33.30;;;;;;;;;;5096486;28;20060;-75
2023/01/05 02:46:19;;;;;;;77.28;31.80;;;;;;;;;;5096207;28;20024;-74
2023/01/05 02:49:05;;;;;;;75.65;32.35;;;;;;;;;;5095818;28;20028;-74
2023/01/05 02:51:54;;;;;;;69.43;29.90;;;;;;;;;;5096173;28;20450;-75
2023/01/05 02:54:46;;;;;;;73.45;30.73;;;;;;;;;;5096671;28;20112;-75
2023/01/05 02:57:45;;;;;;;68.30;28.38;;;;;;;;;;5096864;28;20023;-74
2023/01/05 03:00:37;;;;;;;71.45;31.20;;;;;;;;;;5096066;28;20016;-74
2023/01/05 03:03:46;;;;;;;72.60;31.10;;;;;;;;;;5096566;28;20024;-74
2023/01/05 03:06:37;;;;;;;74.05;31.80;;;;;;;;;;5096115;28;20024;-74
2023/01/05 03:09:26;;;;;;;80.70;32.97;;;;;;;;;;5081275;28;20024;-75
2023/01/05 03:15:22;;;;;;;73.30;31.10;;;;;;;;;;5095719;28;20058;-75
2023/01/05 03:18:10;;;;;;;72.13;31.60;;;;;;;;;;5095484;28;20020;-73
2023/01/05 03:20:56;;;;;;;68.55;30.05;;;;;;;;;;5095370;28;20019;-74
2023/01/05 03:36:05;;;;;;;66.10;29.40;;;;;;;;;;5095099;28;20016;-75
2023/01/05 03:38:51;;;;;;;61.00;27.85;;;;;;;;;;5095811;28;20453;-75
2023/01/05 03:41:37;;;;;;;60.80;29.50;;;;;;;;;;5095783;28;20046;-74
2023/01/05 03:44:23;;;;;;;61.58;28.35;;;;;;;;;;5080886;28;20343;-74
2023/01/05 03:47:09;;;;;;;61.42;28.05;;;;;;;;;;5095638;28;20058;-74
2023/01/05 03:49:54;;;;;;;59.50;28.27;;;;;;;;;;5096262;28;20489;-75
2023/01/05 03:52:40;;;;;;;61.38;29.33;;;;;;;;;;5093533;28;20028;-73
2023/01/05 03:55:26;;;;;;;67.68;29.08;;;;;;;;;;5094963;28;20362;-74
2023/01/05 03:58:11;;;;;;;62.55;29.42;;;;;;;;;;5096280;28;20442;-74
2023/01/05 04:00:57;;;;;;;65.18;29.50;;;;;;;;;;5094457;28;20036;-74
2023/01/05 04:03:42;;;;;;;59.95;28.00;;;;;;;;;;5095098;28;20093;-74
2023/01/05 04:06:28;;;;;;;58.50;28.08;;;;;;;;;;5094404;28;20053;-75
2023/01/05 04:09:13;;;;;;;56.80;29.08;;;;;;;;;;5094591;28;20434;-75
2023/01/05 04:11:59;;;;;;;58.13;28.63;;;;;;;;;;5094736;28;20030;-75
2023/01/05 04:14:45;;;;;;;64.78;29.05;;;;;;;;;;5095004;28;20452;-74
2023/01/05 04:17:30;;;;;;;55.90;27.83;;;;;;;;;;5094649;28;20050;-74
2023/01/05 04:20:16;;;;;;;61.83;30.65;;;;;;;;;;5094930;28;20016;-74
2023/01/05 04:23:02;;;;;;;65.00;30.35;;;;;;;;;;5095153;28;20540;-75
2023/01/05 04:25:47;;;;;;;59.65;30.73;;;;;;;;;;5094551;28;20040;-73
2023/01/05 04:28:33;;;;;;;64.50;30.38;;;;;;;;;;5094288;28;20016;-74
2023/01/05 04:31:18;;;;;;;64.13;31.42;;;;;;;;;;5094389;28;20023;-74
2023/01/05 04:34:04;;;;;;;62.30;28.40;;;;;;;;;;5094274;28;20020;-74
2023/01/05 04:36:49;;;;;;;60.47;29.10;;;;;;;;;;5094232;28;20036;-73
2023/01/05 04:39:35;;;;;;;59.22;28.75;;;;;;;;;;5093682;28;20049;-75
2023/01/05 04:42:21;;;;;;;56.80;28.58;;;;;;;;;;5093771;28;20363;-74
2023/01/05 04:45:07;;;;;;;59.13;29.38;;;;;;;;;;5094170;28;20056;-72
2023/01/05 04:47:52;;;;;;;61.78;29.85;;;;;;;;;;5094596;28;20031;-75
2023/01/05 04:50:38;;;;;;;61.22;29.27;;;;;;;;;;5094091;28;20043;-75
2023/01/05 04:53:23;;;;;;;63.65;31.05;;;;;;;;;;5094838;28;20062;-76
2023/01/05 04:56:09;;;;;;;65.18;30.45;;;;;;;;;;5093913;28;20183;-77
2023/01/05 04:58:55;;;;;;;60.83;29.50;;;;;;;;;;5094177;28;20173;-75
2023/01/05 05:01:40;;;;;;;59.95;29.25;;;;;;;;;;5093549;28;20043;-76
2023/01/05 05:04:26;;;;;;;59.83;29.15;;;;;;;;;;5093494;28;20106;-77
2023/01/05 05:07:11;;;;;;;66.05;31.60;;;;;;;;;;5094145;28;20020;-74
2023/01/05 05:09:57;;;;;;;66.97;31.80;;;;;;;;;;5094444;28;20031;-74
2023/01/05 05:12:43;;;;;;;63.75;32.00;;;;;;;;;;5093633;28;20058;-73
2023/01/05 05:15:28;;;;;;;66.45;32.10;;;;;;;;;;5093645;28;20089;-76
2023/01/05 05:18:14;;;;;;;70.85;34.70;;;;;;;;;;5079695;28;20055;-76
2023/01/05 05:21:00;;;;;;;68.63;33.10;;;;;;;;;;5093600;28;20020;-74
2023/01/05 05:23:45;;;;;;;62.35;32.42;;;;;;;;;;5094127;28;20035;-75
2023/01/05 05:26:31;;;;;;;71.10;35.28;;;;;;;;;;5093441;28;20020;-75
2023/01/05 05:29:16;;;;;;;70.07;35.08;;;;;;;;;;5093779;28;20028;-75
2023/01/05 05:32:02;;;;;;;69.97;34.22;;;;;;;;;;5093168;28;20035;-74
2023/01/05 05:34:47;;;;;;;69.60;36.42;;;;;;;;;;5092493;28;20407;-75
2023/01/05 05:37:33;;;;;;;67.00;34.72;;;;;;;;;;5094326;28;20047;-74
2023/01/05 05:40:19;;;;;;;67.03;34.67;;;;;;;;;;5093340;28;20023;-75
2023/01/05 05:43:04;;;;;;;77.47;35.92;;;;;;;;;;5078998;28;20442;-75
2023/01/05 05:45:50;;;;;;;68.72;33.95;;;;;;;;;;5093277;28;20020;-75
2023/01/05 05:48:35;;;;;;;67.68;32.55;;;;;;;;;;5078650;28;20024;-74
2023/01/05 05:51:21;;;;;;;65.68;33.97;;;;;;;;;;5078313;28;20016;-74
2023/01/05 05:54:07;;;;;;;65.43;34.05;;;;;;;;;;5080435;28;20020;-75
2023/01/05 05:56:53;;;;;;;68.43;36.05;;;;;;;;;;5093109;28;20153;-77
2023/01/05 05:59:38;;;;;;;63.17;32.95;;;;;;;;;;5079132;28;20012;-76
2023/01/05 06:02:24;;;;;;;64.45;33.83;;;;;;;;;;5092876;28;20080;-75
2023/01/05 06:05:09;;;;;;;65.40;33.30;;;;;;;;;;5079448;28;20012;-74
2023/01/05 06:07:55;;;;;;;62.00;32.72;;;;;;;;;;5079424;28;20099;-75
2023/01/05 06:10:40;;;;;;;66.97;34.47;;;;;;;;;;5078941;28;20009;-75
2023/01/05 06:13:26;;;;;;;67.82;33.50;;;;;;;;;;5092393;28;20438;-75
2023/01/05 06:16:12;;;;;;;74.75;35.42;;;;;;;;;;5094824;28;20016;-74
2023/01/05 06:18:57;;;;;;;67.82;36.83;;;;;;;;;;5098361;28;20414;-75
2023/01/05 06:21:43;;;;;;;73.80;36.53;;;;;;;;;;5097679;28;20107;-75
2023/01/05 06:24:28;;;;;;;69.05;37.28;;;;;;;;;;5095859;28;20077;-75
2023/01/05 06:27:14;;;;;;;73.40;38.80;;;;;;;;;;5096791;28;20016;-74
2023/01/05 06:29:59;;;;;;;70.55;36.65;;;;;;;;;;5096707;28;20020;-75
2023/01/05 06:32:45;;;;;;;68.50;35.05;;;;;;;;;;5096490;28;20035;-74
2023/01/05 06:35:31;;;;;;;72.43;38.35;;;;;;;;;;5096275;28;20115;-75
2023/01/05 06:38:17;;;;;;;72.75;36.15;;;;;;;;;;5096833;28;20024;-74
2023/01/05 06:41:03;;;;;;;74.63;38.33;;;;;;;;;;5082253;28;20020;-74
2023/01/05 06:43:48;;;;;;;64.70;35.45;;;;;;;;;;5095909;28;20020;-74
2023/01/05 06:46:34;;;;;;;66.63;37.28;;;;;;;;;;5096060;28;20025;-74
2023/01/05 06:49:19;;;;;;;71.47;37.03;;;;;;;;;;5095545;28;20027;-75
2023/01/05 06:52:05;;;;;;;69.03;36.53;;;;;;;;;;5095983;28;20028;-74
2023/01/05 06:54:51;;;;;;;65.63;36.30;;;;;;;;;;5096580;28;20449;-74
2023/01/05 06:57:36;;;;;;;72.55;37.42;;;;;;;;;;5096584;28;20099;-75
2023/01/05 07:00:22;;;;;;;71.43;38.45;;;;;;;;;;5095350;28;20026;-75
2023/01/05 07:03:11;;;;;;;73.63;41.25;;;;;;;;;;5096534;28;20459;-76
2023/01/05 07:05:56;;;;;;;71.70;39.90;;;;;;;;;;5096739;28;20035;-71
2023/01/05 07:08:42;;;;;;;66.70;36.00;;;;;;;;;;5095957;28;20020;-76
2023/01/05 07:11:27;;;;;;;74.53;42.30;;;;;;;;;;5095837;28;20366;-73
2023/01/05 07:14:14;;;;;;;65.78;35.70;;;;;;;;;;5096463;28;20028;-74
2023/01/05 07:17:00;;;;;;;66.93;35.35;;;;;;;;;;5096860;28;20031;-73
2023/01/05 07:19:45;;;;;;;64.60;33.63;;;;;;;;;;5081747;28;20027;-73
2023/01/05 07:22:31;;;;;;;64.97;32.65;;;;;;;;;;5095719;28;20038;-73
2023/01/05 07:25:17;;;;;;;62.10;33.88;;;;;;;;;;5082661;28;20047;-74
2023/01/05 07:28:02;;;;;;;63.35;33.88;;;;;;;;;;5095656;28;20024;-74
2023/01/05 07:30:51;;;;;;;65.57;37.30;;;;;;;;;;5081104;28;20024;-74
2023/01/05 07:33:37;;;;;;;62.83;36.38;;;;;;;;;;5081027;28;20024;-74
2023/01/05 07:36:23;;;;;;;65.32;37.65;;;;;;;;;;5095507;28;20438;-73
2023/01/05 07:39:08;;;;;;;63.42;37.13;;;;;;;;;;5081116;28;20012;-74
2023/01/05 07:41:54;;;;;;;66.60;37.90;;;;;;;;;;5095271;28;20020;-74
2023/01/05 07:44:39;;;;;;;66.72;37.40;;;;;;;;;;5095819;28;20118;-75
2023/01/05 07:47:25;;;;;;;66.72;38.28;;;;;;;;;;5081385;28;20494;-75
2023/01/05 07:50:11;;;;;;;61.83;36.13;;;;;;;;;;5096425;28;20449;-74
2023/01/05 07:52:57;;;;;;;62.47;36.00;;;;;;;;;;5081825;28;20055;-74
2023/01/05 07:55:43;;;;;;;60.10;33.30;;;;;;;;;;5095330;28;20384;-73
2023/01/05 07:58:28;;;;;;;53.30;29.95;;;;;;;;;;5079853;28;20077;-74
2023/01/05 08:01:16;;;;;;;48.40;28.17;;;;;;;;;;5080643;28;20085;-73
2023/01/05 08:04:02;;;;;;;49.63;28.77;;;;;;;;;;5080570;28;20066;-74
2023/01/05 08:06:47;;;;;;;48.63;28.65;;;;;;;;;;5079624;28;20023;-73
2023/01/05 08:13:58;;;;;;;43.75;26.85;;;;;;;;;;5094482;28;20027;-74
2023/01/05 08:15:42;;;;;;;47.80;28.05;;;;;;;;;;5095061;28;20099;-74
2023/01/05 08:18:28;;;;;;;51.63;28.58;;;;;;;;;;5094322;28;20023;-74
2023/01/05 08:21:13;;;;;;;46.28;27.52;;;;;;;;;;5094599;28;20031;-74
2023/01/05 08:23:59;;;;;;;45.88;27.48;;;;;;;;;;5094504;28;20408;-74
2023/01/05 08:26:48;;;;;;;56.63;30.50;;;;;;;;;;5083584;28;20343;-73
2023/01/05 08:29:33;;;;;;;45.92;27.40;;;;;;;;;;5098342;28;20016;-74
2023/01/05 08:32:19;;;;;;;45.28;27.20;;;;;;;;;;5079542;28;20111;-74
2023/01/05 08:35:05;;;;;;;45.20;27.35;;;;;;;;;;5093415;28;20020;-74
2023/01/05 08:37:50;;;;;;;51.83;27.60;;;;;;;;;;5093712;28;20024;-74
2023/01/05 08:40:36;;;;;;;52.80;28.33;;;;;;;;;;5093561;28;20050;-74
2023/01/05 08:43:22;;;;;;;48.60;28.30;;;;;;;;;;5093554;28;20063;-73
2023/01/05 08:46:08;;;;;;;44.95;26.48;;;;;;;;;;5096135;28;20020;-75
2023/01/05 08:48:54;;;;;;;49.83;28.65;;;;;;;;;;5113108;28;20020;-74
2023/01/05 08:51:40;;;;;;;46.72;27.00;;;;;;;;;;5082966;28;20454;-74
2023/01/05 08:54:25;;;;;;;45.05;26.63;;;;;;;;;;5094679;28;20094;-73
2023/01/05 08:57:11;;;;;;;49.88;27.90;;;;;;;;;;5093149;28;20024;-74
2023/01/05 08:59:57;;;;;;;46.97;27.55;;;;;;;;;;5093278;28;20042;-75
2023/01/05 09:02:43;;;;;;;43.15;26.50;;;;;;;;;;5092885;28;20055;-74
2023/01/05 09:05:28;;;;;;;49.15;29.05;;;;;;;;;;5086162;28;20028;-75
2023/01/05 09:08:14;;;;;;;46.58;28.05;;;;;;;;;;5093951;28;20023;-75
2023/01/05 09:11:07;;;;;;;48.58;28.95;;;;;;;;;;5093366;28;20454;-74
2023/01/05 09:13:54;;;;;;;48.08;28.15;;;;;;;;;;5093655;28;20024;-75
2023/01/05 09:16:39;;;;;;;50.53;30.70;;;;;;;;;;5093210;28;20107;-74
2023/01/05 09:19:25;;;;;;;48.65;29.10;;;;;;;;;;5078922;28;20420;-74
2023/01/05 09:22:10;;;;;;;43.97;27.65;;;;;;;;;;5093381;28;20431;-74
2023/01/05 09:24:56;;;;;;;46.33;27.75;;;;;;;;;;5093602;28;20024;-73
2023/01/05 09:27:42;;;;;;;48.10;28.38;;;;;;;;;;5094104;28;20043;-73
2023/01/05 09:30:27;;;;;;;49.45;29.10;;;;;;;;;;5093365;28;20077;-75
2023/01/05 09:33:13;;;;;;;48.10;28.75;;;;;;;;;;5093412;28;20028;-75
2023/01/05 09:35:58;;;;;;;51.10;28.67;;;;;;;;;;5094149;28;20020;-74
2023/01/05 09:38:51;;;;;;;55.70;34.00;;;;;;;;;;5093685;28;20023;-73
2023/01/05 09:41:39;;;;;;;47.05;28.58;;;;;;;;;;5093544;28;20431;-74
2023/01/05 09:44:25;;;;;;;44.53;27.30;;;;;;;;;;5093091;28;20020;-75
2023/01/05 09:47:17;;;;;;;48.03;28.15;;;;;;;;;;5092857;28;20031;-73
2023/01/05 09:50:07;;;;;;;44.58;27.17;;;;;;;;;;5093892;28;20035;-75
2023/01/05 09:52:56;;;;;;;43.83;26.65;;;;;;;;;;5083209;28;20458;-75
2023/01/05 09:55:42;;;;;;;50.17;29.02;;;;;;;;;;5083277;28;20106;-75
2023/01/05 09:58:32;;;;;;;48.45;29.00;;;;;;;;;;5096902;28;20062;-74
2023/01/05 10:01:19;;;;;;;48.97;29.73;;;;;;;;;;5089051;28;20041;-75
2023/01/05 10:04:19;;;;;;;51.45;29.48;;;;;;;;;;5063322;28;20024;-72
2023/01/05 10:07:06;;;;;;;49.85;29.58;;;;;;;;;;5077152;28;20017;-73
2023/01/05 10:09:54;;;;;;;48.28;29.05;;;;;;;;;;5062255;28;20107;-73
2023/01/05 10:13:05;;;;;;;51.85;30.95;;;;;;;;;;5076818;28;20048;-72
2023/01/05 10:15:52;;;;;;;52.25;29.45;;;;;;;;;;5063136;28;20446;-74
2023/01/05 10:18:38;;;;;;;48.42;28.13;;;;;;;;;;5077132;28;20111;-74
2023/01/05 10:21:26;;;;;;;45.15;27.05;;;;;;;;;;5076742;28;20013;-76
2023/01/05 10:24:20;;;;;;;44.42;27.20;;;;;;;;;;5077245;28;20409;-74
2023/01/05 10:27:22;;;;;;;42.50;26.77;;;;;;;;;;5077530;28;20013;-74
2023/01/05 10:30:28;;;;;;;43.65;27.02;;;;;;;;;;5077119;28;20017;-74
2023/01/05 10:33:15;;;;;;;41.78;26.10;;;;;;;;;;5077904;28;20355;-73
2023/01/05 10:36:08;;;;;;;40.33;26.40;;;;;;;;;;5077160;28;20067;-75
2023/01/05 10:39:10;;;;;;;45.88;26.95;;;;;;;;;;5076580;28;20021;-74
2023/01/05 10:42:03;;;;;;;43.53;26.20;;;;;;;;;;5061763;28;20017;-74
2023/01/05 10:44:56;;;;;;;40.70;25.45;;;;;;;;;;5071361;28;20366;-74
2023/01/05 10:47:43;;;;;;;37.83;23.67;;;;;;;;;;5062100;28;20090;-73
2023/01/05 10:50:35;;;;;;;41.80;25.05;;;;;;;;;;5076798;28;20067;-74
2023/01/05 10:53:23;;;;;;;37.00;23.48;;;;;;;;;;5076444;28;20032;-72
2023/01/05 10:56:09;;;;;;;36.10;22.33;;;;;;;;;;5076610;28;20020;-73
2023/01/05 10:59:11;;;;;;;35.22;21.90;;;;;;;;;;5076126;28;20443;-73
2023/01/05 11:01:57;;;;;;;34.08;21.52;;;;;;;;;;5089181;28;20075;-73
2023/01/05 11:04:46;;;;;;;33.63;20.60;;;;;;;;;;5095718;28;20016;-73
2023/01/05 11:07:32;;;;;;;31.42;20.88;;;;;;;;;;5081905;28;20047;-72
2023/01/05 11:10:23;;;;;;;35.13;21.52;;;;;;;;;;5095695;28;20028;-75
2023/01/05 11:13:14;;;;;;;29.38;19.35;;;;;;;;;;5097141;28;20016;-73
2023/01/05 11:16:21;;;;;;;40.85;18.85;;;;;;;;;;5081247;28;20024;-74
2023/01/05 11:19:12;;;;;;;33.70;20.08;;;;;;;;;;5095832;28;20020;-74
2023/01/05 11:22:01;;;;;;;67.25;32.20;;;;;;;;;;5096503;28;20016;-74
2023/01/05 11:24:49;;;;;;;30.17;18.67;;;;;;;;;;5095561;28;20027;-74
2023/01/05 11:27:36;;;;;;;35.97;21.20;;;;;;;;;;5096450;28;20444;-74
2023/01/05 11:30:24;;;;;;;28.92;18.98;;;;;;;;;;5094618;28;20027;-72
2023/01/05 11:33:20;;;;;;;31.45;20.13;;;;;;;;;;5095943;28;20410;-75
2023/01/05 11:36:06;;;;;;;35.83;20.55;;;;;;;;;;5095697;28;20343;-74
2023/01/05 11:38:56;;;;;;;29.65;18.98;;;;;;;;;;5095376;28;20434;-74
2023/01/05 11:41:42;;;;;;;31.85;20.70;;;;;;;;;;5095287;28;20013;-75
2023/01/05 11:44:27;;;;;;;32.25;19.65;;;;;;;;;;5068168;28;20056;-74
2023/01/05 11:47:39;;;;;;;32.60;19.60;;;;;;;;;;5095496;28;20035;-74
2023/01/05 11:50:51;;;;;;;37.03;20.30;;;;;;;;;;5080686;28;20120;-74
2023/01/05 11:53:38;;;;;;;31.75;19.80;;;;;;;;;;5095389;28;20188;-74
2023/01/05 11:56:23;;;;;;;31.20;19.20;;;;;;;;;;5081772;28;20020;-75
2023/01/05 11:59:26;;;;;;;32.45;20.80;;;;;;;;;;5095078;28;20020;-74
2023/01/05 12:02:30;;;;;;;25.45;16.42;;;;;;;;;;5095244;28;20036;-74
2023/01/05 12:05:34;;;;;;;26.42;15.75;;;;;;;;;;5094893;28;20016;-73
2023/01/05 12:08:36;;;;;;;22.95;14.93;;;;;;;;;;5080243;28;20032;-73
2023/01/05 12:11:23;;;;;;;22.25;13.50;;;;;;;;;;5094757;28;20103;-74
2023/01/05 12:14:17;;;;;;;22.08;13.73;;;;;;;;;;5094278;28;20048;-74
2023/01/05 12:17:10;;;;;;;24.55;14.30;;;;;;;;;;5096375;28;20030;-74
2023/01/05 12:19:58;;;;;;;20.27;13.25;;;;;;;;;;5086015;28;20044;-74
2023/01/05 12:23:02;;;;;;;20.88;13.25;;;;;;;;;;5100385;28;20012;-73
2023/01/05 12:25:57;;;;;;;19.27;12.35;;;;;;;;;;5094725;28;20110;-75
2023/01/05 12:28:43;;;;;;;19.08;12.52;;;;;;;;;;5094996;28;20016;-76
2023/01/05 12:31:38;;;;;;;18.15;12.27;;;;;;;;;;5095634;28;20030;-74
2023/01/05 12:34:32;;;;;;;18.27;11.93;;;;;;;;;;5096249;28;20081;-73
2023/01/05 12:37:30;;;;;;;17.02;10.63;;;;;;;;;;5080180;28;20035;-75
2023/01/05 12:40:35;;;;;;;15.85;11.15;;;;;;;;;;5094221;28;20019;-75
2023/01/05 12:43:46;;;;;;;20.52;10.95;;;;;;;;;;5094448;28;20030;-74
2023/01/05 12:46:56;;;;;;;15.10;10.35;;;;;;;;;;5094415;28;20497;-74
2023/01/05 12:49:47;;;;;;;16.70;10.00;;;;;;;;;;5100082;28;20031;-73
2023/01/05 12:52:34;;;;;;;13.82;9.80;;;;;;;;;;5112909;28;20012;-74
2023/01/05 12:55:22;;;;;;;13.75;9.35;;;;;;;;;;5103274;28;20020;-73
2023/01/05 12:58:22;;;;;;;12.63;8.32;;;;;;;;;;5080246;28;20023;-73
2023/01/05 13:01:15;;;;;;;14.15;8.40;;;;;;;;;;5095276;28;20055;-72
2023/01/05 13:04:21;;;;;;;15.45;8.38;;;;;;;;;;5094170;28;20103;-73
2023/01/05 13:07:10;;;;;;;13.52;8.40;;;;;;;;;;5094131;28;20092;-73
2023/01/05 13:10:02;;;;;;;12.48;7.72;;;;;;;;;;5080511;28;20020;-73
2023/01/05 13:12:50;;;;;;;16.58;8.73;;;;;;;;;;5094716;28;20032;-73
2023/01/05 13:15:47;;;;;;;13.10;8.52;;;;;;;;;;5094099;28;20465;-74
2023/01/05 13:18:35;;;;;;;13.57;8.55;;;;;;;;;;5094061;28;20020;-72
2023/01/05 13:21:21;;;;;;;13.20;8.77;;;;;;;;;;5094508;28;20019;-72
2023/01/05 13:24:30;;;;;;;16.08;9.38;;;;;;;;;;5093879;28;20073;-73
2023/01/05 13:27:16;;;;;;;15.60;8.70;;;;;;;;;;5078858;28;20070;-72
2023/01/05 13:30:03;;;;;;;13.10;8.02;;;;;;;;;;5078855;28;20552;-73
2023/01/05 13:32:48;;;;;;;18.25;9.43;;;;;;;;;;5093825;28;20034;-73
2023/01/05 13:35:40;;;;;;;15.15;9.80;;;;;;;;;;5079253;28;20050;-73
2023/01/05 13:38:48;;;;;;;12.88;8.73;;;;;;;;;;5092935;28;20020;-74
2023/01/05 13:41:57;;;;;;;13.55;8.30;;;;;;;;;;5078273;28;20358;-74
2023/01/05 13:45:01;;;;;;;12.15;7.88;;;;;;;;;;5093145;28;20099;-73
2023/01/05 13:48:05;;;;;;;14.15;8.00;;;;;;;;;;5094179;28;20031;-74
2023/01/05 13:50:50;;;;;;;16.17;8.65;;;;;;;;;;5094409;28;20027;-73
2023/01/05 13:53:37;;;;;;;12.45;8.00;;;;;;;;;;5094794;28;20108;-72
2023/01/05 13:56:27;;;;;;;11.18;6.68;;;;;;;;;;5094262;28;20377;-74
2023/01/05 13:59:18;;;;;;;11.63;7.03;;;;;;;;;;5092986;28;20089;-73
2023/01/05 14:02:21;;;;;;;12.57;7.07;;;;;;;;;;5093971;28;20063;-73
2023/01/05 14:05:15;;;;;;;10.95;7.10;;;;;;;;;;5078818;28;20070;-73
2023/01/05 14:08:05;;;;;;;14.25;7.75;;;;;;;;;;5093689;28;20024;-72
2023/01/05 14:11:09;;;;;;;11.77;7.22;;;;;;;;;;5094007;28;20082;-73
2023/01/05 14:13:54;;;;;;;11.25;7.40;;;;;;;;;;5092946;28;20016;-74
2023/01/05 14:16:41;;;;;;;12.82;7.68;;;;;;;;;;5102146;28;20107;-73
2023/01/05 14:19:36;;;;;;;13.63;8.23;;;;;;;;;;5099184;28;20020;-73
2023/01/05 14:22:23;;;;;;;13.98;8.02;;;;;;;;;;5094937;28;20024;-74
2023/01/05 14:25:42;;;;;;;17.90;9.43;;;;;;;;;;5083451;28;20361;-73
2023/01/05 14:28:28;;;;;;;14.95;8.68;;;;;;;;;;5042626;28;20090;-72
2023/01/05 14:31:13;;;;;;;15.23;8.60;;;;;;;;;;5078276;28;20016;-73
2023/01/05 14:34:02;;;;;;;13.63;8.23;;;;;;;;;;5095033;28;20062;-73
2023/01/05 14:37:08;;;;;;;15.57;9.35;;;;;;;;;;5079839;28;20028;-73
2023/01/05 14:39:54;;;;;;;13.25;8.80;;;;;;;;;;5100846;28;20012;-74
2023/01/05 14:42:40;;;;;;;13.77;9.23;;;;;;;;;;5098561;28;20024;-74
2023/01/05 14:45:34;;;;;;;19.65;10.73;;;;;;;;;;5097947;28;20472;-73
2023/01/05 14:48:26;;;;;;;18.80;9.93;;;;;;;;;;5098021;28;20059;-74
2023/01/05 14:51:18;;;;;;;18.50;10.27;;;;;;;;;;5097197;28;20028;-73
2023/01/05 14:54:04;;;;;;;17.33;9.50;;;;;;;;;;5096260;28;20024;-74
2023/01/05 14:57:09;;;;;;;13.82;8.70;;;;;;;;;;5096598;28;20027;-73
2023/01/05 15:00:10;;;;;;;18.42;8.07;;;;;;;;;;5103794;28;20454;-73
2023/01/05 15:03:17;;;;;;;12.63;6.88;;;;;;;;;;5076681;28;20135;-73
2023/01/05 15:06:08;;;;;;;11.88;7.05;;;;;;;;;;5079727;28;20031;-72
2023/01/05 15:09:12;;;;;;;12.45;6.75;;;;;;;;;;5083570;28;20028;-75
2023/01/05 15:12:25;;;;;;;11.52;7.00;;;;;;;;;;5082445;28;20017;-75
2023/01/05 15:15:10;;;;;;;16.20;7.65;;;;;;;;;;5082290;28;20439;-72
2023/01/05 15:18:05;;;;;;;10.70;7.10;;;;;;;;;;5076356;28;20028;-73
2023/01/05 15:21:00;;;;;;;9.60;6.50;;;;;;;;;;5077195;28;20457;-74
2023/01/05 15:23:51;;;;;;;11.23;6.47;;;;;;;;;;5075331;28;20465;-73
2023/01/05 15:26:43;;;;;;;9.65;6.60;;;;;;;;;;5076641;28;20085;-73
2023/01/05 15:29:34;;;;;;;8.25;5.70;;;;;;;;;;5067426;28;20419;-73
2023/01/05 15:32:21;;;;;;;10.05;6.90;;;;;;;;;;5076182;28;20020;-74
2023/01/05 15:35:10;;;;;;;10.98;6.90;;;;;;;;;;5075677;28;20160;-73
2023/01/05 15:37:55;;;;;;;12.40;6.97;;;;;;;;;;5074746;28;20085;-75
2023/01/05 15:40:41;;;;;;;11.50;7.40;;;;;;;;;;5077205;28;20092;-75
2023/01/05 15:43:27;;;;;;;12.05;7.00;;;;;;;;;;5074520;28;20502;-74
2023/01/05 15:46:16;;;;;;;10.25;6.32;;;;;;;;;;5075374;28;20055;-75
2023/01/05 15:49:01;;;;;;;11.40;6.70;;;;;;;;;;5074601;28;20104;-74
2023/01/05 15:51:52;;;;;;;11.75;7.22;;;;;;;;;;5074170;28;20016;-74
2023/01/05 15:54:38;;;;;;;10.50;6.78;;;;;;;;;;5074376;28;20036;-75
2023/01/05 15:57:24;;;;;;;14.55;7.20;;;;;;;;;;5074876;28;20023;-74
2023/01/05 16:00:17;;;;;;;11.07;7.45;;;;;;;;;;5059880;28;20454;-75
2023/01/05 16:03:25;;;;;;;10.65;7.10;;;;;;;;;;5074350;28;20044;-74
2023/01/05 16:06:16;;;;;;;15.95;8.93;;;;;;;;;;5060647;28;20038;-76
2023/01/05 16:09:06;;;;;;;12.32;7.60;;;;;;;;;;5060995;28;20025;-78
2023/01/05 16:11:57;;;;;;;11.05;7.22;;;;;;;;;;5075294;28;20520;-76
2023/01/05 16:14:44;;;;;;;10.77;7.15;;;;;;;;;;5060329;28;20032;-75
2023/01/05 16:17:31;;;;;;;11.25;6.85;;;;;;;;;;5061520;28;20458;-75
2023/01/05 16:20:24;;;;;;;10.00;6.50;;;;;;;;;;5075782;28;20024;-75
2023/01/05 16:23:13;;;;;;;10.50;6.97;;;;;;;;;;5074809;28;20359;-76
2023/01/05 16:25:59;;;;;;;11.02;6.72;;;;;;;;;;5062494;28;20017;-76
2023/01/05 16:28:45;;;;;;;12.43;7.25;;;;;;;;;;5074994;28;20462;-76
2023/01/05 16:31:34;;;;;;;12.38;7.45;;;;;;;;;;5076140;28;20043;-76
2023/01/05 16:34:26;;;;;;;11.95;6.82;;;;;;;;;;5060268;28;20021;-75
2023/01/05 16:37:15;;;;;;;14.05;7.60;;;;;;;;;;5074982;28;20025;-76
2023/01/05 16:40:01;;;;;;;11.88;7.18;;;;;;;;;;5075009;28;20035;-75
2023/01/05 16:42:49;;;;;;;12.25;7.03;;;;;;;;;;5075361;28;20017;-75
2023/01/05 16:45:34;;;;;;;10.88;6.70;;;;;;;;;;5081796;28;20028;-75
2023/01/05 16:48:37;;;;;;;10.82;6.53;;;;;;;;;;5089954;28;20012;-74
2023/01/05 16:51:32;;;;;;;24.88;12.70;;;;;;;;;;5090942;28;20076;-75
2023/01/05 16:54:23;;;;;;;13.95;7.60;;;;;;;;;;5061670;28;20487;-75
2023/01/05 16:57:36;;;;;;;12.85;8.40;;;;;;;;;;5074365;28;20025;-75
2023/01/05 17:00:24;;;;;;;12.88;6.78;;;;;;;;;;5060891;28;20024;-74
2023/01/05 17:03:29;;;;;;;12.13;7.18;;;;;;;;;;5095652;28;20035;-77